createdAt,value
2023-02-14T00:00:29.644Z,52.63
2023-02-14T00:02:57.110Z,52.27
2023-02-14T00:05:24.026Z,52.55
2023-02-14T00:07:50.621Z,53.34
2023-02-14T00:10:17.626Z,52.77
2023-02-14T00:12:44.178Z,52.38
2023-02-14T00:15:23.654Z,52.48
2023-02-14T00:17:51.750Z,52.61
2023-02-14T00:20:18.675Z,52.69
2023-02-14T00:22:45.253Z,52.62
2023-02-14T00:25:11.993Z,52.60
2023-02-14T00:27:38.716Z,52.40
2023-02-14T00:30:07.731Z,53.02
2023-02-14T00:32:34.520Z,53.18
2023-02-14T00:35:01.717Z,53.32
2023-02-14T00:37:28.267Z,53.19
2023-02-14T00:39:54.803Z,52.52
2023-02-14T00:42:21.349Z,52.72
2023-02-14T00:44:47.912Z,53.03
2023-02-14T00:47:14.498Z,52.64
2023-02-14T00:49:41.131Z,52.53
2023-02-14T00:52:07.655Z,52.57
2023-02-14T00:54:34.226Z,52.94
2023-02-14T00:57:00.751Z,52.90
2023-02-14T00:59:28.648Z,53.17
2023-02-14T01:01:55.264Z,53.33
2023-02-14T01:04:21.796Z,53.23
2023-02-14T01:06:48.356Z,53.09
2023-02-14T01:09:14.928Z,52.76
2023-02-14T01:11:41.698Z,52.88
2023-02-14T01:14:08.381Z,52.45
2023-02-14T01:16:36.606Z,52.28
2023-02-14T01:19:03.283Z,52.57
2023-02-14T01:21:32.739Z,52.04
2023-02-14T01:24:03.618Z,51.78
2023-02-14T01:26:30.301Z,52.24
2023-02-14T01:28:57.284Z,52.05
2023-02-14T01:31:32.465Z,51.99
2023-02-14T01:33:59.710Z,52.33
2023-02-14T01:36:38.859Z,52.47
2023-02-14T01:39:08.704Z,52.39
2023-02-14T01:41:37.506Z,52.15
2023-02-14T01:44:08.095Z,52.05
2023-02-14T01:46:37.507Z,52.56
2023-02-14T01:49:20.765Z,52.71
2023-02-14T01:51:52.785Z,52.36
2023-02-14T01:54:22.158Z,53.01
2023-02-14T01:56:54.065Z,52.78
2023-02-14T01:59:25.153Z,52.70
2023-02-14T02:01:53.262Z,52.98
2023-02-14T02:04:35.780Z,52.97
2023-02-14T02:07:17.808Z,52.83
2023-02-14T02:09:52.848Z,52.77
2023-02-14T02:12:20.108Z,52.61
2023-02-14T02:14:48.504Z,52.76
2023-02-14T02:17:44.302Z,53.00
2023-02-14T02:21:18.744Z,53.21
2023-02-14T02:24:04.767Z,53.04
2023-02-14T02:26:58.914Z,52.16
2023-02-14T02:30:02.906Z,53.00
2023-02-14T02:32:49.668Z,52.09
2023-02-14T02:35:22.118Z,52.76
2023-02-14T02:38:14.716Z,52.50
2023-02-14T02:40:50.038Z,52.58
2023-02-14T02:43:32.981Z,52.45
2023-02-14T02:46:29.100Z,51.93
2023-02-14T02:49:06.554Z,52.18
2023-02-14T02:52:03.244Z,52.29
2023-02-14T02:54:37.879Z,51.98
2023-02-14T02:57:09.240Z,52.06
2023-02-14T02:59:41.507Z,52.32
2023-02-14T03:02:13.715Z,52.40
2023-02-14T03:04:53.523Z,52.55
2023-02-14T03:07:36.584Z,52.01
2023-02-14T03:10:15.486Z,51.71
2023-02-14T03:12:46.320Z,51.74
2023-02-14T03:15:18.746Z,51.36
2023-02-14T03:18:20.207Z,51.36
2023-02-14T03:20:55.136Z,51.82
2023-02-14T03:23:27.645Z,52.02
2023-02-14T03:26:09.357Z,51.95
2023-02-14T03:28:45.026Z,52.18
2023-02-14T03:31:27.563Z,51.87
2023-02-14T03:34:09.012Z,51.94
2023-02-14T03:36:41.609Z,51.87
2023-02-14T03:39:15.315Z,52.12
2023-02-14T03:42:06.167Z,51.57
2023-02-14T03:44:36.395Z,51.01
2023-02-14T03:47:09.119Z,51.41
2023-02-14T03:49:40.545Z,51.37
2023-02-14T03:52:09.537Z,51.67
2023-02-14T03:54:36.514Z,51.77
2023-02-14T03:57:18.299Z,51.18
2023-02-14T03:59:45.002Z,51.41
2023-02-14T04:02:19.762Z,51.53
2023-02-14T04:04:49.445Z,52.18
2023-02-14T04:07:18.381Z,51.77
2023-02-14T04:09:45.593Z,52.37
2023-02-14T04:12:13.003Z,52.05
2023-02-14T04:14:39.545Z,51.57
2023-02-14T04:17:25.296Z,51.94
2023-02-14T04:19:51.914Z,52.27
2023-02-14T04:22:19.167Z,52.33
2023-02-14T04:24:45.756Z,52.09
2023-02-14T04:27:12.419Z,51.96
2023-02-14T04:29:44.181Z,52.09
2023-02-14T04:32:14.221Z,52.14
2023-02-14T04:34:41.256Z,52.24
2023-02-14T04:37:07.956Z,52.18
2023-02-14T04:39:35.128Z,52.24
2023-02-14T04:42:02.304Z,52.71
2023-02-14T04:44:28.917Z,52.09
2023-02-14T04:46:55.751Z,51.91
2023-02-14T04:49:22.450Z,51.62
2023-02-14T04:51:48.970Z,52.07
2023-02-14T04:54:15.500Z,51.88
2023-02-14T04:56:42.291Z,51.97
2023-02-14T04:59:08.977Z,52.05
2023-02-14T05:01:35.624Z,51.96
2023-02-14T05:04:02.388Z,51.86
2023-02-14T05:06:28.985Z,51.34
2023-02-14T05:08:56.662Z,51.92
2023-02-14T05:11:23.370Z,52.11
2023-02-14T05:13:50.012Z,51.81
2023-02-14T05:16:16.624Z,51.57
2023-02-14T05:18:43.246Z,51.15
2023-02-14T05:21:09.846Z,51.05
2023-02-14T05:23:36.424Z,51.36
2023-02-14T05:26:03.158Z,51.53
2023-02-14T05:28:29.755Z,52.03
2023-02-14T05:30:59.552Z,52.46
2023-02-14T05:33:26.651Z,51.70
2023-02-14T05:35:53.313Z,51.97
2023-02-14T05:38:20.265Z,52.01
2023-02-14T05:40:46.781Z,52.17
2023-02-14T05:43:13.389Z,52.03
2023-02-14T05:45:40.151Z,51.75
2023-02-14T05:48:07.087Z,51.94
2023-02-14T05:50:33.800Z,51.75
2023-02-14T05:53:00.862Z,52.10
2023-02-14T05:55:27.466Z,52.28
2023-02-14T05:57:54.259Z,52.08
2023-02-14T06:00:21.676Z,51.69
2023-02-14T06:02:48.246Z,52.09
2023-02-14T06:05:17.712Z,51.22
2023-02-14T06:07:50.327Z,51.34
2023-02-14T06:10:18.795Z,51.41
2023-02-14T06:12:46.268Z,51.76
2023-02-14T06:15:12.843Z,51.60
2023-02-14T06:17:39.547Z,52.59
2023-02-14T06:20:07.205Z,52.68
2023-02-14T06:22:33.764Z,52.38
2023-02-14T06:25:00.362Z,52.01
2023-02-14T06:27:28.412Z,52.21
2023-02-14T06:29:54.953Z,52.16
2023-02-14T06:32:21.497Z,51.94
2023-02-14T06:34:48.208Z,52.06
2023-02-14T06:37:14.847Z,52.11
2023-02-14T06:39:41.441Z,51.78
2023-02-14T06:42:08.023Z,51.28
2023-02-14T06:44:34.558Z,50.98
2023-02-14T06:47:01.186Z,50.89
2023-02-14T06:49:27.792Z,51.00
2023-02-14T06:51:54.340Z,51.07
2023-02-14T06:54:20.927Z,51.33
2023-02-14T06:56:47.512Z,51.46
2023-02-14T06:59:14.106Z,51.53
2023-02-14T07:01:40.717Z,51.33
2023-02-14T07:04:07.275Z,51.44
2023-02-14T07:06:33.938Z,51.15
2023-02-14T07:09:00.438Z,51.13
2023-02-14T07:11:28.491Z,51.13
2023-02-14T07:13:55.205Z,50.85
2023-02-14T07:16:21.723Z,51.03
2023-02-14T07:18:48.315Z,50.90
2023-02-14T07:21:14.991Z,50.19
2023-02-14T07:23:41.592Z,50.22
2023-02-14T07:26:08.145Z,50.44
2023-02-14T07:28:34.711Z,49.56
2023-02-14T07:31:02.021Z,49.83
2023-02-14T07:33:28.811Z,49.80
2023-02-14T07:35:55.451Z,49.72
2023-02-14T07:38:22.026Z,49.23
2023-02-14T07:40:48.604Z,49.14
2023-02-14T07:43:15.133Z,49.39
2023-02-14T07:45:41.652Z,49.22
2023-02-14T07:48:08.165Z,48.91
2023-02-14T07:50:34.713Z,49.52
2023-02-14T07:53:01.306Z,48.87
2023-02-14T07:55:27.852Z,49.08
2023-02-14T07:57:54.489Z,49.05
2023-02-14T08:00:21.449Z,48.46
2023-02-14T08:02:49.352Z,48.26
2023-02-14T08:05:16.059Z,48.75
2023-02-14T08:07:43.848Z,48.53
2023-02-14T08:10:12.851Z,48.58
2023-02-14T08:12:58.311Z,47.79
2023-02-14T08:15:51.310Z,48.79
2023-02-14T08:18:19.291Z,47.80
2023-02-14T08:20:49.849Z,48.13
2023-02-14T08:23:17.205Z,47.97
2023-02-14T08:25:43.816Z,48.10
2023-02-14T08:28:10.499Z,47.57
2023-02-14T08:30:38.159Z,47.81
2023-02-14T08:33:05.682Z,48.32
2023-02-14T08:35:32.221Z,47.71
2023-02-14T08:37:59.177Z,48.00
2023-02-14T08:40:25.798Z,47.70
2023-02-14T08:42:52.450Z,48.22
2023-02-14T08:45:19.067Z,47.31
2023-02-14T08:47:45.739Z,47.71
2023-02-14T08:50:15.831Z,47.53
2023-02-14T08:52:45.768Z,47.32
2023-02-14T08:55:13.475Z,46.80
2023-02-14T08:57:40.421Z,46.56
2023-02-14T09:00:08.385Z,46.25
2023-02-14T09:02:35.034Z,45.74
2023-02-14T09:05:01.800Z,45.38
2023-02-14T09:07:28.346Z,45.46
2023-02-14T09:09:54.933Z,45.64
2023-02-14T09:12:21.482Z,45.25
2023-02-14T09:14:48.111Z,45.36
2023-02-14T09:17:15.442Z,45.62
2023-02-14T09:19:42.738Z,45.86
2023-02-14T09:22:10.986Z,45.89
2023-02-14T09:24:39.209Z,45.74
2023-02-14T09:27:06.665Z,45.62
2023-02-14T09:29:34.246Z,44.90
2023-02-14T09:32:02.731Z,45.15
2023-02-14T09:34:29.967Z,44.47
2023-02-14T09:37:15.106Z,44.61
2023-02-14T09:39:41.622Z,43.94
2023-02-14T09:42:22.323Z,44.14
2023-02-14T09:45:01.187Z,44.57
2023-02-14T09:47:42.264Z,44.76
2023-02-14T09:50:34.394Z,44.36
2023-02-14T09:53:06.652Z,44.58
2023-02-14T09:55:42.432Z,44.69
2023-02-14T09:58:23.395Z,44.13
2023-02-14T10:01:00.859Z,43.76
2023-02-14T10:03:49.099Z,44.36
2023-02-14T10:06:18.514Z,43.99
2023-02-14T10:09:01.162Z,45.12
2023-02-14T10:11:28.590Z,44.78
2023-02-14T10:14:03.853Z,44.71
2023-02-14T10:16:40.333Z,44.67
2023-02-14T10:19:24.004Z,44.24
2023-02-14T10:21:57.000Z,45.49
2023-02-14T10:24:30.904Z,45.60
2023-02-14T10:27:03.051Z,45.42
2023-02-14T10:29:29.877Z,45.85
2023-02-14T10:32:02.325Z,45.40
2023-02-14T10:34:49.369Z,45.35
2023-02-14T10:37:37.951Z,45.00
2023-02-14T10:40:10.403Z,45.11
2023-02-14T10:42:56.974Z,44.91
2023-02-14T10:45:32.764Z,45.30
2023-02-14T10:48:18.609Z,44.89
2023-02-14T10:51:14.915Z,44.76
2023-02-14T10:53:53.234Z,43.93
2023-02-14T10:56:40.311Z,43.14
2023-02-14T10:59:21.750Z,43.25
2023-02-14T11:01:52.203Z,43.75
2023-02-14T11:04:21.577Z,43.10
2023-02-14T11:06:51.300Z,42.18
2023-02-14T11:09:18.529Z,40.41
2023-02-14T11:11:56.157Z,37.12
2023-02-14T11:14:32.394Z,34.73
2023-02-14T11:17:00.869Z,32.68
2023-02-14T11:19:31.378Z,33.33
2023-02-14T11:21:59.896Z,31.29
2023-02-14T11:24:32.084Z,29.18
2023-02-14T11:27:07.298Z,26.04
2023-02-14T11:29:45.050Z,24.34
2023-02-14T11:32:22.894Z,22.63
2023-02-14T11:34:59.619Z,21.90
2023-02-14T11:37:43.366Z,22.50
2023-02-14T11:40:36.795Z,21.76
2023-02-14T11:43:15.472Z,21.65
2023-02-14T11:45:44.032Z,21.02
2023-02-14T11:48:41.983Z,20.35
2023-02-14T11:51:13.937Z,20.49
2023-02-14T11:53:52.200Z,19.06
2023-02-14T11:56:20.850Z,19.23
2023-02-14T11:58:57.938Z,18.52
2023-02-14T12:01:38.502Z,17.28
2023-02-14T12:04:12.349Z,16.96
2023-02-14T12:06:39.157Z,17.53
2023-02-14T12:09:27.080Z,18.31
2023-02-14T12:12:03.061Z,18.44
2023-02-14T12:14:32.934Z,17.68
2023-02-14T12:17:11.666Z,17.90
2023-02-14T12:19:42.472Z,18.48
2023-02-14T12:22:16.457Z,18.75
2023-02-14T12:25:02.912Z,19.29
2023-02-14T12:27:44.493Z,20.14
2023-02-14T12:30:22.788Z,20.13
2023-02-14T12:32:56.349Z,21.10
2023-02-14T12:35:59.841Z,21.61
2023-02-14T12:38:46.690Z,22.34
2023-02-14T12:41:35.175Z,21.24
2023-02-14T12:44:48.145Z,21.14
2023-02-14T12:47:21.473Z,20.59
2023-02-14T12:50:23.393Z,20.34
2023-02-14T12:53:16.647Z,21.24
2023-02-14T12:56:12.163Z,22.54
2023-02-14T12:58:49.419Z,22.75
2023-02-14T13:01:38.860Z,22.28
2023-02-14T13:04:36.101Z,22.85
2023-02-14T13:07:11.720Z,21.65
2023-02-14T13:09:44.333Z,20.01
2023-02-14T13:12:34.985Z,19.21
2023-02-14T13:15:10.881Z,18.07
2023-02-14T13:17:56.543Z,18.13
2023-02-14T13:20:41.687Z,17.55
2023-02-14T13:23:48.549Z,17.41
2023-02-14T13:26:21.902Z,17.01
2023-02-14T13:29:20.527Z,16.79
2023-02-14T13:31:48.402Z,15.92
2023-02-14T13:34:34.920Z,16.30
2023-02-14T13:37:06.255Z,16.74
2023-02-14T13:39:38.380Z,17.68
2023-02-14T13:42:06.471Z,17.66
2023-02-14T13:44:44.590Z,18.47
2023-02-14T13:47:23.592Z,18.65
2023-02-14T13:49:57.922Z,19.49
2023-02-14T13:52:48.927Z,20.45
2023-02-14T13:55:22.873Z,21.80
2023-02-14T13:58:06.236Z,21.74
2023-02-14T14:00:47.338Z,22.61
2023-02-14T14:03:34.213Z,23.66
2023-02-14T14:06:12.749Z,23.19
2023-02-14T14:08:45.888Z,24.92
2023-02-14T14:11:34.937Z,24.85
2023-02-14T14:14:30.229Z,25.70
2023-02-14T14:16:59.331Z,25.08
2023-02-14T14:19:25.915Z,22.92
2023-02-14T14:22:07.434Z,23.05
2023-02-14T14:24:37.468Z,22.97
2023-02-14T14:27:12.483Z,23.48
2023-02-14T14:29:45.155Z,25.91
2023-02-14T14:32:18.200Z,25.85
2023-02-14T14:34:50.802Z,24.99
2023-02-14T14:37:20.792Z,25.83
2023-02-14T14:39:52.951Z,25.91
2023-02-14T14:42:20.727Z,25.98
2023-02-14T14:45:00.090Z,26.71
2023-02-14T14:47:40.272Z,22.70
2023-02-14T14:50:14.119Z,21.77
2023-02-14T14:52:43.713Z,21.95
2023-02-14T14:55:24.017Z,21.78
2023-02-14T14:58:06.041Z,20.89
2023-02-14T15:00:35.894Z,21.12
2023-02-14T15:03:09.780Z,21.38
2023-02-14T15:05:38.802Z,22.57
2023-02-14T15:08:14.620Z,23.19
2023-02-14T15:10:42.591Z,23.72
2023-02-14T15:13:32.319Z,25.41
2023-02-14T15:15:59.481Z,26.25
2023-02-14T15:18:26.121Z,27.57
2023-02-14T15:20:53.381Z,28.14
2023-02-14T15:23:23.944Z,29.92
2023-02-14T15:25:51.795Z,30.48
2023-02-14T15:28:28.659Z,31.13
2023-02-14T15:31:03.324Z,30.62
2023-02-14T15:33:31.878Z,31.08
2023-02-14T15:36:15.365Z,31.14
2023-02-14T15:38:43.251Z,31.21
2023-02-14T15:41:10.406Z,32.47
2023-02-14T15:43:37.758Z,33.37
2023-02-14T15:46:29.170Z,34.56
2023-02-14T15:49:00.730Z,35.18
2023-02-14T15:51:31.380Z,35.59
2023-02-14T15:54:05.433Z,35.90
2023-02-14T15:56:35.064Z,36.56
2023-02-14T15:59:07.209Z,37.17
2023-02-14T16:01:35.492Z,37.27
2023-02-14T16:04:05.343Z,37.69
2023-02-14T16:06:34.052Z,37.99
2023-02-14T16:09:01.453Z,38.27
2023-02-14T16:11:38.125Z,38.49
2023-02-14T16:14:32.302Z,38.90
2023-02-14T16:17:10.855Z,39.01
2023-02-14T16:19:43.143Z,39.59
2023-02-14T16:22:24.101Z,39.78
2023-02-14T16:24:50.858Z,40.05
2023-02-14T16:27:17.413Z,40.41
2023-02-14T16:29:43.939Z,40.56
2023-02-14T16:32:20.559Z,40.99
2023-02-14T16:34:48.308Z,41.73
2023-02-14T16:37:22.165Z,41.90
2023-02-14T16:39:50.900Z,42.31
2023-02-14T16:42:18.396Z,42.67
2023-02-14T16:44:46.291Z,42.64
2023-02-14T16:47:14.098Z,42.66
2023-02-14T16:49:40.806Z,42.87
2023-02-14T16:52:14.270Z,43.06
2023-02-14T16:54:40.863Z,43.47
2023-02-14T16:57:12.679Z,43.28
2023-02-14T16:59:39.256Z,44.04
2023-02-14T17:02:05.965Z,44.26
2023-02-14T17:04:32.518Z,44.48
2023-02-14T17:07:05.620Z,44.49
2023-02-14T17:09:38.115Z,44.63
2023-02-14T17:12:13.187Z,45.02
2023-02-14T17:14:43.369Z,45.23
2023-02-14T17:17:10.780Z,45.69
2023-02-14T17:19:37.330Z,45.79
2023-02-14T17:22:04.535Z,45.96
2023-02-14T17:24:31.644Z,45.88
2023-02-14T17:26:58.315Z,45.97
2023-02-14T17:29:24.954Z,46.21
2023-02-14T17:31:51.560Z,46.55
2023-02-14T17:34:18.576Z,46.75
2023-02-14T17:36:45.445Z,46.65
2023-02-14T17:39:12.080Z,46.88
2023-02-14T17:41:39.454Z,46.74
2023-02-14T17:44:07.166Z,46.90
2023-02-14T17:46:33.833Z,47.21
2023-02-14T17:49:02.616Z,47.04
2023-02-14T17:51:29.578Z,47.27
2023-02-14T17:53:58.788Z,47.45
2023-02-14T17:56:26.444Z,47.54
2023-02-14T17:58:53.817Z,47.61
2023-02-14T18:01:26.312Z,47.42
2023-02-14T18:03:56.110Z,47.68
2023-02-14T18:06:23.095Z,47.75
2023-02-14T18:08:52.700Z,47.89
2023-02-14T18:11:20.897Z,47.86
2023-02-14T18:13:47.610Z,48.02
2023-02-14T18:16:16.914Z,48.16
2023-02-14T18:18:44.155Z,48.22
2023-02-14T18:21:12.646Z,48.37
2023-02-14T18:23:39.585Z,47.87
2023-02-14T18:26:10.793Z,48.46
2023-02-14T18:28:38.116Z,48.82
2023-02-14T18:31:13.772Z,49.25
2023-02-14T18:33:41.007Z,49.17
2023-02-14T18:36:13.395Z,49.00
2023-02-14T18:38:41.778Z,49.60
2023-02-14T18:41:12.169Z,50.02
2023-02-14T18:43:40.899Z,50.16
2023-02-14T18:46:19.732Z,50.27
2023-02-14T18:48:46.664Z,50.26
2023-02-14T18:51:17.564Z,50.35
2023-02-14T18:53:45.435Z,50.33
2023-02-14T18:56:20.919Z,50.61
2023-02-14T18:58:50.623Z,51.02
2023-02-14T19:01:20.997Z,50.85
2023-02-14T19:03:51.464Z,50.89
2023-02-14T19:06:18.808Z,51.05
2023-02-14T19:08:45.417Z,50.78
2023-02-14T19:11:23.688Z,51.06
2023-02-14T19:13:53.471Z,50.97
2023-02-14T19:16:26.643Z,51.30
2023-02-14T19:18:54.143Z,51.35
2023-02-14T19:21:24.277Z,51.41
2023-02-14T19:23:53.450Z,51.82
2023-02-14T19:26:24.228Z,51.93
2023-02-14T19:28:56.071Z,51.98
2023-02-14T19:31:23.186Z,51.57
2023-02-14T19:33:50.287Z,52.23
2023-02-14T19:36:19.642Z,52.12
2023-02-14T19:38:49.276Z,51.82
2023-02-14T19:41:23.061Z,51.69
2023-02-14T19:43:52.858Z,51.52
2023-02-14T19:46:21.203Z,51.43
2023-02-14T19:48:48.632Z,51.77
2023-02-14T19:51:26.586Z,51.30
2023-02-14T19:53:53.896Z,51.48
2023-02-14T19:56:24.979Z,51.32
2023-02-14T19:58:52.312Z,51.21
2023-02-14T20:01:30.548Z,51.18
2023-02-14T20:03:57.545Z,51.24
2023-02-14T20:06:25.403Z,51.02
2023-02-14T20:08:52.629Z,51.09
2023-02-14T20:11:32.871Z,51.06
2023-02-14T20:14:00.547Z,50.95
2023-02-14T20:16:29.483Z,51.12
2023-02-14T20:18:56.873Z,50.93
2023-02-14T20:21:28.266Z,50.74
2023-02-14T20:23:58.536Z,51.23
2023-02-14T20:26:25.426Z,50.72
2023-02-14T20:28:53.248Z,51.21
2023-02-14T20:31:20.254Z,51.17
2023-02-14T20:33:47.747Z,51.46
2023-02-14T20:36:14.611Z,51.43
2023-02-14T20:38:42.654Z,51.54
2023-02-14T20:41:13.942Z,51.73
2023-02-14T20:43:40.672Z,51.71
2023-02-14T20:46:07.698Z,51.68
2023-02-14T20:48:35.528Z,51.57
2023-02-14T20:51:16.249Z,52.15
2023-02-14T20:53:45.753Z,52.08
2023-02-14T20:56:13.368Z,52.14
2023-02-14T20:58:40.780Z,52.62
2023-02-14T21:01:13.103Z,52.41
2023-02-14T21:03:41.587Z,52.38
2023-02-14T21:06:11.468Z,51.97
2023-02-14T21:08:39.158Z,52.10
2023-02-14T21:11:07.616Z,51.89
2023-02-14T21:13:34.226Z,52.12
2023-02-14T21:16:05.483Z,51.92
2023-02-14T21:18:33.204Z,51.45
2023-02-14T21:21:14.784Z,51.89
2023-02-14T21:23:41.847Z,52.00
2023-02-14T21:26:08.530Z,52.05
2023-02-14T21:28:35.168Z,52.29
2023-02-14T21:31:05.891Z,51.86
2023-02-14T21:33:32.972Z,52.26
2023-02-14T21:36:32.269Z,52.43
2023-02-14T21:38:59.657Z,52.27
2023-02-14T21:41:29.253Z,52.33
2023-02-14T21:43:57.684Z,52.49
2023-02-14T21:46:31.051Z,51.96
2023-02-14T21:49:20.982Z,52.50
2023-02-14T21:51:47.996Z,52.45
2023-02-14T21:54:15.619Z,52.34
2023-02-14T21:56:42.272Z,52.43
2023-02-14T21:59:09.719Z,52.60
2023-02-14T22:01:38.888Z,52.22
2023-02-14T22:04:07.759Z,52.44
2023-02-14T22:06:37.167Z,52.09
2023-02-14T22:09:04.316Z,52.15
2023-02-14T22:11:31.163Z,52.18
2023-02-14T22:13:57.749Z,52.62
2023-02-14T22:16:25.653Z,52.37
2023-02-14T22:18:52.779Z,52.15
2023-02-14T22:21:22.310Z,51.67
2023-02-14T22:23:49.335Z,51.80
2023-02-14T22:26:18.946Z,51.37
2023-02-14T22:28:47.110Z,51.84
2023-02-14T22:31:14.961Z,51.92
2023-02-14T22:33:41.709Z,52.10
2023-02-14T22:36:09.157Z,52.35
2023-02-14T22:38:37.137Z,52.36
2023-02-14T22:41:14.462Z,52.62
2023-02-14T22:43:41.941Z,52.54
2023-02-14T22:46:12.006Z,52.28
2023-02-14T22:48:39.372Z,52.42
2023-02-14T22:51:12.921Z,52.08
2023-02-14T22:53:39.524Z,52.25
2023-02-14T22:56:11.118Z,51.74
2023-02-14T22:58:37.931Z,52.02
2023-02-14T23:01:04.653Z,52.00
2023-02-14T23:03:31.206Z,52.38
2023-02-14T23:05:58.064Z,52.19
2023-02-14T23:08:24.596Z,52.26
2023-02-14T23:10:51.145Z,51.96
2023-02-14T23:13:36.230Z,51.95
2023-02-14T23:16:21.148Z,52.26
2023-02-14T23:19:06.359Z,52.23
2023-02-14T23:21:51.529Z,51.93
2023-02-14T23:24:18.071Z,52.18
2023-02-14T23:26:44.608Z,52.50
2023-02-14T23:29:11.203Z,52.02
2023-02-14T23:31:37.885Z,52.00
2023-02-14T23:34:04.729Z,52.14
2023-02-14T23:36:31.513Z,51.59
2023-02-14T23:38:58.035Z,51.47
2023-02-14T23:41:43.517Z,51.68
2023-02-14T23:44:10.033Z,52.11
2023-02-14T23:46:36.563Z,52.24
2023-02-14T23:49:03.212Z,52.59
2023-02-14T23:51:29.895Z,51.95
2023-02-14T23:53:56.447Z,52.02
2023-02-14T23:56:23.544Z,51.60
2023-02-14T23:58:50.081Z,51.94
